Time;durP1;ratioP1;P1;durP2;ratioP2;P2;SDS_P1;SDS_P2;PMS_P1;PMS_P2;Temp;Humidity;BMP_temperature;BMP_pressure;BME280_temperature;BME280_humidity;BME280_pressure;Samples;Min_cycle;Max_cycle;Signal;HPM_P1;HPM_P2
2023/08/29 00:00:22;;;;;;;1.60;1.50;;;;;;;;;;5033538;28;20047;-81
2023/08/29 00:02:48;;;;;;;1.42;1.33;;;;;;;;;;5037436;28;20033;-80
2023/08/29 00:05:14;;;;;;;1.90;1.60;;;;;;;;;;5045000;28;20024;-81
2023/08/29 00:07:39;;;;;;;1.80;1.67;;;;;;;;;;5040349;28;20029;-81
2023/08/29 00:10:05;;;;;;;1.35;1.27;;;;;;;;;;5041520;28;20036;-80
2023/08/29 00:12:34;;;;;;;4.07;1.77;;;;;;;;;;5038023;28;20054;-80
2023/08/29 00:15:00;;;;;;;1.60;1.50;;;;;;;;;;5040928;28;20049;-80
2023/08/29 00:17:26;;;;;;;1.60;1.50;;;;;;;;;;5041651;28;20030;-81
2023/08/29 00:19:53;;;;;;;1.80;1.70;;;;;;;;;;5036652;28;20048;-81
2023/08/29 00:22:19;;;;;;;2.45;1.48;;;;;;;;;;5038807;28;20472;-80
2023/08/29 00:24:44;;;;;;;2.10;1.60;;;;;;;;;;5041728;28;20029;-80
2023/08/29 00:27:10;;;;;;;3.20;1.27;;;;;;;;;;5036946;28;20035;-80
2023/08/29 00:29:36;;;;;;;1.65;1.50;;;;;;;;;;5035497;28;20024;-80
2023/08/29 00:32:01;;;;;;;2.15;1.48;;;;;;;;;;5040952;28;20469;-80
2023/08/29 00:34:27;;;;;;;1.52;1.42;;;;;;;;;;5036867;28;20037;-80
2023/08/29 00:36:52;;;;;;;2.45;1.55;;;;;;;;;;5040649;28;20032;-80
2023/08/29 00:39:18;;;;;;;1.83;1.55;;;;;;;;;;5041962;28;20120;-80
2023/08/29 00:41:48;;;;;;;1.45;1.33;;;;;;;;;;4997314;28;1102206;-81
2023/08/29 00:44:13;;;;;;;1.67;1.58;;;;;;;;;;5030205;28;20643;-81
2023/08/29 00:46:39;;;;;;;1.70;1.60;;;;;;;;;;5029068;28;20105;-82
2023/08/29 00:49:04;;;;;;;2.53;1.80;;;;;;;;;;5034497;28;20032;-81
2023/08/29 00:51:30;;;;;;;1.80;1.70;;;;;;;;;;5026001;28;20017;-81
2023/08/29 00:53:55;;;;;;;2.75;2.03;;;;;;;;;;5045252;28;20470;-80
2023/08/29 00:56:20;;;;;;;2.22;1.80;;;;;;;;;;5037243;28;20100;-80
2023/08/29 00:58:46;;;;;;;1.88;1.77;;;;;;;;;;5036917;28;20037;-80
2023/08/29 01:01:12;;;;;;;1.98;1.65;;;;;;;;;;5036974;28;20021;-80
2023/08/29 01:03:39;;;;;;;1.60;1.50;;;;;;;;;;5037358;28;20040;-80
2023/08/29 01:06:04;;;;;;;1.80;1.70;;;;;;;;;;5037332;28;20026;-80
2023/08/29 01:08:30;;;;;;;1.90;1.80;;;;;;;;;;5037106;28;20029;-79
2023/08/29 01:11:06;;;;;;;2.13;1.70;;;;;;;;;;5035644;28;20017;-81
2023/08/29 01:13:37;;;;;;;2.92;2.00;;;;;;;;;;5036938;28;20021;-81
2023/08/29 01:16:07;;;;;;;1.77;1.67;;;;;;;;;;5036275;28;20039;-81
2023/08/29 01:18:36;;;;;;;1.83;1.63;;;;;;;;;;5037348;28;20037;-80
2023/08/29 01:21:14;;;;;;;2.53;1.73;;;;;;;;;;5036240;28;20369;-80
2023/08/29 01:23:43;;;;;;;1.70;1.60;;;;;;;;;;5038453;28;20026;-81
2023/08/29 01:26:16;;;;;;;1.98;1.80;;;;;;;;;;5037002;28;20026;-81
2023/08/29 01:28:46;;;;;;;1.95;1.60;;;;;;;;;;5035441;28;20071;-80
2023/08/29 01:31:12;;;;;;;2.22;1.90;;;;;;;;;;5037273;28;20074;-81
2023/08/29 01:33:38;;;;;;;2.00;1.80;;;;;;;;;;5037445;28;20025;-82
2023/08/29 01:36:04;;;;;;;1.70;1.60;;;;;;;;;;5037457;28;20494;-81
2023/08/29 01:38:30;;;;;;;1.95;1.52;;;;;;;;;;5037060;28;20550;-81
2023/08/29 01:40:55;;;;;;;2.47;1.60;;;;;;;;;;5037690;28;20041;-80
2023/08/29 01:43:21;;;;;;;2.42;1.85;;;;;;;;;;5036069;28;20026;-80
2023/08/29 01:45:46;;;;;;;3.80;1.90;;;;;;;;;;5036217;28;20033;-81
2023/08/29 01:48:11;;;;;;;2.17;1.83;;;;;;;;;;5035495;28;20021;-79
2023/08/29 01:50:38;;;;;;;2.55;2.00;;;;;;;;;;5037153;28;20072;-81
2023/08/29 01:53:04;;;;;;;1.95;1.75;;;;;;;;;;5036548;28;20056;-80
2023/08/29 01:55:30;;;;;;;3.35;1.77;;;;;;;;;;5036602;28;20095;-81
2023/08/29 01:57:58;;;;;;;7.35;2.13;;;;;;;;;;5036965;28;20491;-80
2023/08/29 02:00:24;;;;;;;3.03;2.05;;;;;;;;;;5036533;28;20033;-80
2023/08/29 02:02:50;;;;;;;1.73;1.63;;;;;;;;;;5035685;28;20021;-80
2023/08/29 02:05:15;;;;;;;1.98;1.88;;;;;;;;;;5036660;28;20056;-80
2023/08/29 02:07:40;;;;;;;1.90;1.80;;;;;;;;;;5034704;28;20120;-81
2023/08/29 02:10:06;;;;;;;2.20;2.00;;;;;;;;;;5036024;28;20022;-82
2023/08/29 02:12:32;;;;;;;1.73;1.52;;;;;;;;;;5035867;28;20013;-80
2023/08/29 02:14:57;;;;;;;2.88;2.30;;;;;;;;;;5035838;28;20030;-81
2023/08/29 02:17:23;;;;;;;2.88;2.00;;;;;;;;;;5036622;28;20072;-80
2023/08/29 02:19:48;;;;;;;2.08;1.90;;;;;;;;;;5038387;28;20380;-81
2023/08/29 02:22:13;;;;;;;2.15;1.52;;;;;;;;;;5034149;28;20032;-80
2023/08/29 02:24:39;;;;;;;2.22;2.03;;;;;;;;;;5035805;28;20378;-81
2023/08/29 02:27:05;;;;;;;3.53;2.30;;;;;;;;;;5035207;28;20037;-80
2023/08/29 02:29:30;;;;;;;2.38;1.92;;;;;;;;;;5036311;28;20584;-81
2023/08/29 02:31:56;;;;;;;1.98;1.83;;;;;;;;;;5036318;28;20017;-80
2023/08/29 02:34:21;;;;;;;1.70;1.60;;;;;;;;;;5035726;28;20089;-80
2023/08/29 02:36:46;;;;;;;4.00;1.60;;;;;;;;;;5036439;28;20416;-80
2023/08/29 02:39:12;;;;;;;2.28;2.08;;;;;;;;;;5036870;28;20055;-81
2023/08/29 02:41:37;;;;;;;1.85;1.70;;;;;;;;;;5038827;28;20060;-80
2023/08/29 02:44:03;;;;;;;3.85;1.90;;;;;;;;;;5040064;28;20071;-80
2023/08/29 02:46:29;;;;;;;4.00;2.40;;;;;;;;;;5038773;28;20036;-80
2023/08/29 02:48:54;;;;;;;1.63;1.52;;;;;;;;;;5042202;28;20122;-80
2023/08/29 02:51:19;;;;;;;2.42;2.00;;;;;;;;;;5039911;28;20436;-80
2023/08/29 02:53:45;;;;;;;1.45;1.35;;;;;;;;;;5039995;28;20109;-81
2023/08/29 02:56:10;;;;;;;3.13;2.10;;;;;;;;;;5039192;28;20048;-80
2023/08/29 02:58:35;;;;;;;3.60;2.30;;;;;;;;;;5040200;28;20181;-80
2023/08/29 03:01:02;;;;;;;2.08;1.92;;;;;;;;;;5039991;28;20033;-79
2023/08/29 03:03:27;;;;;;;2.53;2.15;;;;;;;;;;5040814;28;20052;-81
2023/08/29 03:05:57;;;;;;;5.00;2.58;;;;;;;;;;5032834;28;20022;-81
2023/08/29 03:08:22;;;;;;;2.97;2.28;;;;;;;;;;5040017;28;20468;-81
2023/08/29 03:10:51;;;;;;;3.08;2.05;;;;;;;;;;5040521;28;20021;-81
2023/08/29 03:13:21;;;;;;;4.60;2.28;;;;;;;;;;5033489;28;20036;-81
2023/08/29 03:15:47;;;;;;;2.10;1.98;;;;;;;;;;5040512;28;20477;-80
2023/08/29 03:18:12;;;;;;;2.28;1.92;;;;;;;;;;5041527;28;20173;-81
2023/08/29 03:20:42;;;;;;;5.00;1.92;;;;;;;;;;5050413;28;20028;-81
2023/08/29 03:23:08;;;;;;;2.35;2.13;;;;;;;;;;5033985;28;20037;-81
2023/08/29 03:25:33;;;;;;;3.00;2.05;;;;;;;;;;5025474;28;20049;-80
2023/08/29 03:27:59;;;;;;;2.88;2.35;;;;;;;;;;5026872;28;20028;-81
2023/08/29 03:30:27;;;;;;;2.42;2.17;;;;;;;;;;5041349;28;20017;-82
2023/08/29 03:32:53;;;;;;;2.72;2.10;;;;;;;;;;5041272;28;20025;-80
2023/08/29 03:35:19;;;;;;;2.50;2.30;;;;;;;;;;5036215;28;20080;-81
2023/08/29 03:37:45;;;;;;;2.65;2.22;;;;;;;;;;5030304;28;20021;-81
2023/08/29 03:40:14;;;;;;;3.25;2.58;;;;;;;;;;5051850;28;20029;-80
2023/08/29 03:42:39;;;;;;;3.20;2.45;;;;;;;;;;5040379;28;20033;-81
2023/08/29 03:45:06;;;;;;;4.57;2.60;;;;;;;;;;5023149;28;20033;-82
2023/08/29 03:47:33;;;;;;;2.85;2.47;;;;;;;;;;5020988;28;20042;-80
2023/08/29 03:49:58;;;;;;;4.65;3.15;;;;;;;;;;5026960;28;20029;-81
2023/08/29 03:52:27;;;;;;;3.13;2.70;;;;;;;;;;5040257;28;20416;-82
2023/08/29 03:54:53;;;;;;;4.68;2.88;;;;;;;;;;5025650;28;20026;-80
2023/08/29 03:57:19;;;;;;;4.00;3.03;;;;;;;;;;5031638;28;20025;-81
2023/08/29 03:59:44;;;;;;;5.05;3.15;;;;;;;;;;5025532;28;20390;-82
2023/08/29 04:02:09;;;;;;;4.15;2.58;;;;;;;;;;5029824;28;20026;-82
2023/08/29 04:04:35;;;;;;;5.07;3.50;;;;;;;;;;5040999;28;20068;-80
2023/08/29 04:07:01;;;;;;;4.75;3.60;;;;;;;;;;5022882;28;20446;-80
2023/08/29 04:09:26;;;;;;;4.25;3.25;;;;;;;;;;5029794;28;20029;-81
2023/08/29 04:11:52;;;;;;;5.15;3.70;;;;;;;;;;5031850;28;20014;-81
2023/08/29 04:14:17;;;;;;;5.10;3.97;;;;;;;;;;5031671;28;20022;-81
2023/08/29 04:16:44;;;;;;;5.43;3.60;;;;;;;;;;5031705;28;20153;-82
2023/08/29 04:19:10;;;;;;;6.53;4.55;;;;;;;;;;5029629;28;20068;-80
2023/08/29 04:21:35;;;;;;;6.30;4.22;;;;;;;;;;5041211;28;20021;-80
2023/08/29 04:24:01;;;;;;;5.53;4.45;;;;;;;;;;5022771;28;20050;-81
2023/08/29 04:26:26;;;;;;;6.15;3.92;;;;;;;;;;5022985;28;20029;-82
2023/08/29 04:28:51;;;;;;;6.90;4.50;;;;;;;;;;5031030;28;20025;-79
2023/08/29 04:31:19;;;;;;;7.57;4.22;;;;;;;;;;5019298;28;20494;-81
2023/08/29 04:33:45;;;;;;;5.85;4.47;;;;;;;;;;5027045;28;20401;-81
2023/08/29 04:36:10;;;;;;;5.65;4.30;;;;;;;;;;5020669;28;20030;-82
2023/08/29 04:38:35;;;;;;;6.15;4.13;;;;;;;;;;5028561;28;20095;-80
2023/08/29 04:41:01;;;;;;;8.07;4.97;;;;;;;;;;5030961;28;20068;-81
2023/08/29 04:43:27;;;;;;;6.65;4.53;;;;;;;;;;5027910;28;20033;-80
2023/08/29 04:45:52;;;;;;;5.88;4.60;;;;;;;;;;5018273;28;20018;-81
2023/08/29 04:48:18;;;;;;;5.90;4.38;;;;;;;;;;5020061;28;20022;-80
2023/08/29 04:50:45;;;;;;;8.38;4.90;;;;;;;;;;5037623;28;20028;-82
2023/08/29 04:53:11;;;;;;;5.38;4.35;;;;;;;;;;5039031;28;20032;-81
2023/08/29 04:55:36;;;;;;;5.72;4.53;;;;;;;;;;5040640;28;20021;-82
2023/08/29 04:58:02;;;;;;;5.90;4.07;;;;;;;;;;5039494;28;20032;-81
2023/08/29 05:00:28;;;;;;;6.70;4.53;;;;;;;;;;5031455;28;20079;-81
2023/08/29 05:02:54;;;;;;;5.80;4.07;;;;;;;;;;5039527;28;20030;-82
2023/08/29 05:05:20;;;;;;;6.50;4.70;;;;;;;;;;5042937;28;20079;-82
2023/08/29 05:07:45;;;;;;;9.80;4.13;;;;;;;;;;5032071;28;20017;-82
2023/08/29 05:10:10;;;;;;;6.63;4.95;;;;;;;;;;5036904;28;20532;-82
2023/08/29 05:12:36;;;;;;;8.45;5.43;;;;;;;;;;5042886;28;20025;-82
2023/08/29 05:15:02;;;;;;;7.10;4.80;;;;;;;;;;5036654;28;20033;-82
2023/08/29 05:17:27;;;;;;;9.57;5.18;;;;;;;;;;5036981;28;20107;-82
2023/08/29 05:19:53;;;;;;;6.97;5.05;;;;;;;;;;5037127;28;20017;-82
2023/08/29 05:22:18;;;;;;;12.50;5.75;;;;;;;;;;5037425;28;20105;-81
2023/08/29 05:24:43;;;;;;;6.38;4.30;;;;;;;;;;5037506;28;20052;-82
2023/08/29 05:27:09;;;;;;;8.43;5.10;;;;;;;;;;5036741;28;20113;-82
2023/08/29 05:29:34;;;;;;;6.70;5.00;;;;;;;;;;5036926;28;20025;-82
2023/08/29 05:31:59;;;;;;;7.28;5.03;;;;;;;;;;5037073;28;20071;-81
2023/08/29 05:34:25;;;;;;;6.00;4.65;;;;;;;;;;5037157;28;20037;-80
2023/08/29 05:36:51;;;;;;;5.95;4.57;;;;;;;;;;5036451;28;20501;-81
2023/08/29 05:39:17;;;;;;;7.05;4.50;;;;;;;;;;5032206;28;20029;-81
2023/08/29 05:41:42;;;;;;;9.50;5.13;;;;;;;;;;5029806;28;20059;-82
2023/08/29 05:44:08;;;;;;;6.43;4.35;;;;;;;;;;5030066;28;20069;-82
2023/08/29 05:46:33;;;;;;;7.38;4.88;;;;;;;;;;5030471;28;20052;-82
2023/08/29 05:48:59;;;;;;;6.90;4.70;;;;;;;;;;5027419;28;20025;-84
2023/08/29 05:51:26;;;;;;;7.70;4.97;;;;;;;;;;5036124;28;20542;-84
2023/08/29 05:53:51;;;;;;;7.47;4.97;;;;;;;;;;5029231;28;20026;-83
2023/08/29 05:56:16;;;;;;;6.63;4.90;;;;;;;;;;5030005;28;20051;-83
2023/08/29 05:58:42;;;;;;;8.93;5.43;;;;;;;;;;5016751;28;20098;-83
2023/08/29 06:01:09;;;;;;;7.57;4.80;;;;;;;;;;5043586;28;20489;-82
2023/08/29 06:03:34;;;;;;;7.13;4.63;;;;;;;;;;5026489;28;20025;-83
2023/08/29 06:05:59;;;;;;;7.22;5.35;;;;;;;;;;5030047;28;20034;-81
2023/08/29 06:08:25;;;;;;;5.30;4.38;;;;;;;;;;5026075;28;20051;-83
2023/08/29 06:10:50;;;;;;;6.80;4.00;;;;;;;;;;5022606;28;20041;-83
2023/08/29 06:13:16;;;;;;;6.40;5.22;;;;;;;;;;5034972;28;20029;-82
2023/08/29 06:15:43;;;;;;;7.40;5.18;;;;;;;;;;5029418;28;20014;-82
2023/08/29 06:18:08;;;;;;;6.47;4.20;;;;;;;;;;5028184;28;20053;-83
2023/08/29 06:20:34;;;;;;;5.82;4.38;;;;;;;;;;5043586;28;20021;-82
2023/08/29 06:22:59;;;;;;;7.03;4.65;;;;;;;;;;5028211;28;20033;-81
2023/08/29 06:25:25;;;;;;;7.18;5.25;;;;;;;;;;5032713;28;20029;-82
2023/08/29 06:27:50;;;;;;;8.15;4.60;;;;;;;;;;5023039;28;20018;-82
2023/08/29 06:30:16;;;;;;;9.27;5.38;;;;;;;;;;5029779;28;20038;-81
2023/08/29 06:32:42;;;;;;;7.22;4.68;;;;;;;;;;5032420;28;20025;-82
2023/08/29 06:35:09;;;;;;;6.78;4.65;;;;;;;;;;5030860;28;20021;-81
2023/08/29 06:37:36;;;;;;;7.70;4.70;;;;;;;;;;5026293;28;20052;-82
2023/08/29 06:40:03;;;;;;;5.68;4.30;;;;;;;;;;5023891;28;20040;-82
2023/08/29 06:42:28;;;;;;;4.40;3.50;;;;;;;;;;5032753;28;20018;-81
2023/08/29 06:44:57;;;;;;;4.68;3.40;;;;;;;;;;5040928;28;20057;-81
2023/08/29 06:47:22;;;;;;;4.95;3.92;;;;;;;;;;5043334;28;20018;-80
2023/08/29 06:49:47;;;;;;;8.05;4.57;;;;;;;;;;5053291;28;20029;-81
2023/08/29 06:52:13;;;;;;;5.70;4.07;;;;;;;;;;5030350;28;20032;-81
2023/08/29 06:54:39;;;;;;;6.25;4.30;;;;;;;;;;5020154;28;20026;-82
2023/08/29 06:57:04;;;;;;;5.43;3.67;;;;;;;;;;5014522;28;20025;-82
2023/08/29 06:59:29;;;;;;;4.32;3.67;;;;;;;;;;5014602;28;20093;-81
2023/08/29 07:01:55;;;;;;;4.95;4.10;;;;;;;;;;5027928;28;20025;-81
2023/08/29 07:04:20;;;;;;;4.78;3.97;;;;;;;;;;5033058;28;20033;-81
2023/08/29 07:06:45;;;;;;;6.28;4.35;;;;;;;;;;5037092;28;20026;-81
2023/08/29 07:09:11;;;;;;;5.45;4.18;;;;;;;;;;5032501;28;20033;-82
2023/08/29 07:11:36;;;;;;;7.72;3.85;;;;;;;;;;5017181;28;20013;-83
2023/08/29 07:14:02;;;;;;;5.75;4.18;;;;;;;;;;5023980;28;20099;-81
2023/08/29 07:16:27;;;;;;;5.68;3.90;;;;;;;;;;5017044;28;20176;-81
2023/08/29 07:18:53;;;;;;;6.53;4.35;;;;;;;;;;5038669;28;20026;-81
2023/08/29 07:21:18;;;;;;;4.90;3.97;;;;;;;;;;5044119;28;20389;-81
2023/08/29 07:23:43;;;;;;;6.07;3.97;;;;;;;;;;5016078;28;20105;-81
2023/08/29 07:26:09;;;;;;;5.43;4.00;;;;;;;;;;5032707;28;20037;-82
2023/08/29 07:28:34;;;;;;;5.60;3.92;;;;;;;;;;5047282;28;20009;-82
2023/08/29 07:31:00;;;;;;;3.90;3.50;;;;;;;;;;5055231;28;20579;-81
2023/08/29 07:33:25;;;;;;;5.63;4.05;;;;;;;;;;5054529;28;20142;-80
2023/08/29 07:35:51;;;;;;;5.70;4.05;;;;;;;;;;5050407;28;20048;-79
2023/08/29 07:38:18;;;;;;;5.13;4.25;;;;;;;;;;5052138;28;20029;-81
2023/08/29 07:40:45;;;;;;;7.18;5.22;;;;;;;;;;5032760;28;20172;-80
2023/08/29 07:43:11;;;;;;;5.30;3.97;;;;;;;;;;5017435;28;20037;-82
2023/08/29 07:45:36;;;;;;;5.50;4.20;;;;;;;;;;5016881;28;20416;-82
2023/08/29 07:48:01;;;;;;;4.80;3.50;;;;;;;;;;5015538;28;20022;-82
2023/08/29 07:50:27;;;;;;;5.68;4.32;;;;;;;;;;5041492;28;20021;-81
2023/08/29 07:52:53;;;;;;;10.43;4.90;;;;;;;;;;5029790;28;20552;-82
2023/08/29 07:55:18;;;;;;;5.68;4.72;;;;;;;;;;5018034;28;20045;-82
2023/08/29 07:57:44;;;;;;;10.23;4.03;;;;;;;;;;5021250;28;20025;-81
2023/08/29 08:00:10;;;;;;;4.72;3.92;;;;;;;;;;5032585;28;20034;-81
2023/08/29 08:02:40;;;;;;;5.50;4.30;;;;;;;;;;5031976;28;20021;-83
2023/08/29 08:05:15;;;;;;;7.07;4.78;;;;;;;;;;5021222;28;20486;-82
2023/08/29 08:07:43;;;;;;;5.88;4.50;;;;;;;;;;5048898;28;20067;-82
2023/08/29 08:10:10;;;;;;;8.85;4.20;;;;;;;;;;5023352;28;20037;-83
2023/08/29 08:12:37;;;;;;;5.53;4.25;;;;;;;;;;5019630;28;20025;-83
2023/08/29 08:15:04;;;;;;;5.47;4.60;;;;;;;;;;5019255;28;20487;-83
2023/08/29 08:17:30;;;;;;;6.05;4.40;;;;;;;;;;5043907;28;20029;-81
2023/08/29 08:19:55;;;;;;;8.18;4.55;;;;;;;;;;5030127;28;20095;-83
2023/08/29 08:22:22;;;;;;;8.40;4.18;;;;;;;;;;5037599;28;20029;-83
2023/08/29 08:24:47;;;;;;;5.65;4.20;;;;;;;;;;5027138;28;20018;-83
2023/08/29 08:27:13;;;;;;;7.72;4.20;;;;;;;;;;5021731;28;20026;-83
2023/08/29 08:29:38;;;;;;;6.25;4.57;;;;;;;;;;5019427;28;20025;-83
2023/08/29 08:32:04;;;;;;;8.63;5.25;;;;;;;;;;5019692;28;20022;-82
2023/08/29 08:34:29;;;;;;;5.43;4.43;;;;;;;;;;5021488;28;20382;-83
2023/08/29 08:36:54;;;;;;;6.18;4.80;;;;;;;;;;5016921;28;20025;-82
2023/08/29 08:39:21;;;;;;;7.20;4.03;;;;;;;;;;5033604;28;20044;-82
2023/08/29 08:41:46;;;;;;;8.10;5.20;;;;;;;;;;5031635;28;20499;-82
2023/08/29 08:44:16;;;;;;;7.38;5.18;;;;;;;;;;5032762;28;20030;-83
2023/08/29 08:46:43;;;;;;;6.35;4.35;;;;;;;;;;5024987;28;20103;-83
2023/08/29 08:49:08;;;;;;;6.57;4.68;;;;;;;;;;5025322;28;20029;-82
2023/08/29 08:51:37;;;;;;;4.53;3.90;;;;;;;;;;5028770;28;20041;-83
2023/08/29 08:54:03;;;;;;;4.78;4.22;;;;;;;;;;5038280;28;20032;-83
2023/08/29 08:56:29;;;;;;;5.97;4.22;;;;;;;;;;5033054;28;20070;-82
2023/08/29 08:58:55;;;;;;;6.97;4.63;;;;;;;;;;5040392;28;20074;-83
2023/08/29 09:01:20;;;;;;;7.30;4.05;;;;;;;;;;5039636;28;20385;-83
2023/08/29 09:03:46;;;;;;;6.65;4.20;;;;;;;;;;5038956;28;20053;-83
2023/08/29 09:06:14;;;;;;;6.25;4.78;;;;;;;;;;5037901;28;20483;-83
2023/08/29 09:08:40;;;;;;;6.75;4.90;;;;;;;;;;5038022;28;20025;-83
2023/08/29 09:11:05;;;;;;;6.95;5.20;;;;;;;;;;5030391;28;20100;-84
2023/08/29 09:13:31;;;;;;;8.07;5.05;;;;;;;;;;5035086;28;20105;-81
2023/08/29 09:15:59;;;;;;;4.90;4.28;;;;;;;;;;5035400;28;20036;-82
2023/08/29 09:18:31;;;;;;;6.90;4.40;;;;;;;;;;5034583;28;20283;-83
2023/08/29 09:21:00;;;;;;;7.03;4.93;;;;;;;;;;5045760;28;20021;-83
2023/08/29 09:23:29;;;;;;;7.03;5.47;;;;;;;;;;5031186;28;20133;-83
2023/08/29 09:25:56;;;;;;;6.60;5.03;;;;;;;;;;5018316;28;20370;-84
2023/08/29 09:28:31;;;;;;;7.88;5.63;;;;;;;;;;5025816;28;20025;-83
2023/08/29 09:31:08;;;;;;;7.47;5.32;;;;;;;;;;5024171;28;20013;-84
2023/08/29 09:33:34;;;;;;;10.05;6.00;;;;;;;;;;5024822;28;20025;-83
2023/08/29 09:36:01;;;;;;;8.25;5.30;;;;;;;;;;5028065;28;20482;-83
2023/08/29 09:38:32;;;;;;;7.10;5.03;;;;;;;;;;5027516;28;20049;-83
2023/08/29 09:40:58;;;;;;;8.07;5.10;;;;;;;;;;5024354;28;20038;-82
2023/08/29 09:43:23;;;;;;;5.93;5.18;;;;;;;;;;5016976;28;20025;-82
2023/08/29 09:45:52;;;;;;;8.63;5.22;;;;;;;;;;5020229;28;20029;-83
2023/08/29 09:48:18;;;;;;;9.63;6.03;;;;;;;;;;5039676;28;20039;-82
2023/08/29 09:50:45;;;;;;;6.70;5.30;;;;;;;;;;5043757;28;20096;-82
2023/08/29 09:53:16;;;;;;;13.38;5.57;;;;;;;;;;5029525;28;20034;-83
2023/08/29 09:55:46;;;;;;;7.72;5.75;;;;;;;;;;5017615;28;20516;-82
2023/08/29 09:58:12;;;;;;;8.65;5.45;;;;;;;;;;5033037;28;20041;-83
2023/08/29 10:00:39;;;;;;;6.25;5.50;;;;;;;;;;5034578;28;20060;-82
2023/08/29 10:03:08;;;;;;;5.65;4.80;;;;;;;;;;5028982;28;20032;-83
2023/08/29 10:05:35;;;;;;;8.95;5.05;;;;;;;;;;5033536;28;20033;-83
2023/08/29 10:08:07;;;;;;;5.60;4.35;;;;;;;;;;5029884;28;20022;-83
2023/08/29 10:10:34;;;;;;;;;;;;;;;;;;5029946;28;20022;-81
2023/08/29 10:13:00;;;;;;;5.55;4.30;;;;;;;;;;5035544;28;19909;-82
2023/08/29 10:15:26;;;;;;;5.53;4.00;;;;;;;;;;5023204;28;20021;-83
2023/08/29 10:17:52;;;;;;;4.30;3.70;;;;;;;;;;5030998;28;20307;-83
2023/08/29 10:20:19;;;;;;;4.65;3.75;;;;;;;;;;5035589;28;20116;-82
2023/08/29 10:22:48;;;;;;;6.25;4.38;;;;;;;;;;5037561;28;20024;-82
2023/08/29 10:25:13;;;;;;;4.55;4.07;;;;;;;;;;5036982;28;20025;-82
2023/08/29 10:27:40;;;;;;;4.28;3.83;;;;;;;;;;5034557;28;20076;-82
2023/08/29 10:30:06;;;;;;;7.63;6.35;;;;;;;;;;5040564;28;20056;-82
2023/08/29 10:32:34;;;;;;;5.35;4.35;;;;;;;;;;5038290;28;20017;-82
2023/08/29 10:34:59;;;;;;;5.95;4.70;;;;;;;;;;5025391;28;20436;-83
2023/08/29 10:37:25;;;;;;;9.00;4.82;;;;;;;;;;5020386;28;20060;-81
2023/08/29 10:39:51;;;;;;;6.28;5.03;;;;;;;;;;5019403;28;20036;-81
2023/08/29 10:42:16;;;;;;;6.90;5.03;;;;;;;;;;5030343;28;20025;-82
2023/08/29 10:44:46;;;;;;;5.07;4.07;;;;;;;;;;5020484;28;20477;-82
2023/08/29 10:47:30;;;;;;;4.95;4.00;;;;;;;;;;5022985;28;20040;-83
2023/08/29 10:50:06;;;;;;;5.60;4.20;;;;;;;;;;5037211;28;20028;-81
2023/08/29 10:52:40;;;;;;;5.55;4.43;;;;;;;;;;5027305;28;20033;-82
2023/08/29 10:55:18;;;;;;;5.82;5.22;;;;;;;;;;5015967;28;20535;-81
2023/08/29 10:57:44;;;;;;;6.70;4.97;;;;;;;;;;5021173;28;20030;-81
2023/08/29 11:00:45;;;;;;;7.70;5.68;;;;;;;;;;5030157;28;20075;-82
2023/08/29 11:03:11;;;;;;;8.23;5.53;;;;;;;;;;5004191;28;20518;-81
2023/08/29 11:05:39;;;;;;;8.50;5.10;;;;;;;;;;5025982;28;20045;-81
2023/08/29 11:08:23;;;;;;;7.65;5.65;;;;;;;;;;5039389;28;20021;-82
2023/08/29 11:11:19;;;;;;;8.82;6.53;;;;;;;;;;5076781;22;20041;-80
2023/08/29 11:14:06;;;;;;;4.57;4.07;;;;;;;;;;5059117;28;20434;-82
2023/08/29 11:16:36;;;;;;;4.80;4.30;;;;;;;;;;5072311;28;20036;-80
2023/08/29 11:19:13;;;;;;;8.38;5.07;;;;;;;;;;5062271;28;20099;-81
2023/08/29 11:21:43;;;;;;;6.95;4.80;;;;;;;;;;5067143;28;20033;-82
2023/08/29 11:24:10;;;;;;;5.03;4.53;;;;;;;;;;5073178;28;20086;-80
2023/08/29 11:26:40;;;;;;;5.13;4.63;;;;;;;;;;5074312;28;20028;-81
2023/08/29 11:29:06;;;;;;;5.32;4.28;;;;;;;;;;5075769;28;20479;-79
2023/08/29 11:31:36;;;;;;;6.53;4.72;;;;;;;;;;5066223;28;20510;-79
2023/08/29 11:34:02;;;;;;;6.57;4.53;;;;;;;;;;5076513;28;20025;-79
2023/08/29 11:36:32;;;;;;;4.30;3.90;;;;;;;;;;5076013;28;20031;-79
2023/08/29 11:38:58;;;;;;;5.97;3.90;;;;;;;;;;5059718;28;20039;-79
2023/08/29 11:41:27;;;;;;;4.47;3.17;;;;;;;;;;5050009;28;20029;-79
2023/08/29 11:43:54;;;;;;;8.90;4.45;;;;;;;;;;5076756;28;20082;-79
2023/08/29 11:46:19;;;;;;;4.78;3.80;;;;;;;;;;5077271;28;20507;-78
2023/08/29 11:48:45;;;;;;;6.80;3.92;;;;;;;;;;5071796;28;20035;-79
2023/08/29 11:51:11;;;;;;;5.22;3.25;;;;;;;;;;5057375;28;20094;-79
2023/08/29 11:53:37;;;;;;;7.95;3.38;;;;;;;;;;5069352;28;20021;-80
2023/08/29 11:56:05;;;;;;;3.80;3.30;;;;;;;;;;5060800;28;20046;-79
2023/08/29 11:58:31;;;;;;;3.90;3.13;;;;;;;;;;5071275;28;20162;-79
2023/08/29 12:01:00;;;;;;;5.18;3.72;;;;;;;;;;5078033;28;20092;-80
2023/08/29 12:03:26;;;;;;;8.48;4.40;;;;;;;;;;5077184;28;20020;-80
2023/08/29 12:05:57;;;;;;;7.53;4.75;;;;;;;;;;5070887;28;20381;-82
2023/08/29 12:08:42;;;;;;;6.05;4.97;;;;;;;;;;5051363;28;20574;-80
2023/08/29 12:15:14;;;;;;;5.05;4.55;;;;;;;;;;5078383;28;20051;-81
2023/08/29 12:17:58;;;;;;;6.47;4.15;;;;;;;;;;5068583;28;20028;-81
2023/08/29 12:20:33;;;;;;;6.68;4.43;;;;;;;;;;5044473;28;20033;-81
2023/08/29 12:23:46;;;;;;;3.20;2.75;;;;;;;;;;5057721;28;20024;-81
2023/08/29 12:26:46;;;;;;;2.85;2.65;;;;;;;;;;5069641;28;20522;-80
2023/08/29 12:29:34;;;;;;;2.78;2.58;;;;;;;;;;5056927;28;20040;-80
2023/08/29 12:31:59;;;;;;;2.83;2.60;;;;;;;;;;5072334;28;20028;-80
2023/08/29 12:34:25;;;;;;;2.15;1.95;;;;;;;;;;5075893;28;20048;-80
2023/08/29 12:36:51;;;;;;;2.47;2.00;;;;;;;;;;5072221;28;20031;-80
2023/08/29 12:39:16;;;;;;;2.50;2.30;;;;;;;;;;5076731;28;20029;-79
2023/08/29 12:41:42;;;;;;;2.95;2.67;;;;;;;;;;5066671;28;20041;-80
2023/08/29 12:44:09;;;;;;;4.50;4.03;;;;;;;;;;5075243;28;20036;-79
2023/08/29 12:46:34;;;;;;;4.80;3.30;;;;;;;;;;5058643;28;20024;-79
2023/08/29 12:49:02;;;;;;;3.95;3.45;;;;;;;;;;5051422;28;20486;-81
2023/08/29 12:51:28;;;;;;;5.82;3.58;;;;;;;;;;5072065;28;20395;-81
2023/08/29 12:53:53;;;;;;;4.40;3.58;;;;;;;;;;5066650;28;20098;-80
2023/08/29 12:56:19;;;;;;;6.57;3.30;;;;;;;;;;5038488;28;20052;-80
2023/08/29 12:58:44;;;;;;;3.33;3.03;;;;;;;;;;5063163;28;20111;-79
2023/08/29 13:01:10;;;;;;;3.25;2.63;;;;;;;;;;5068450;28;20028;-79
2023/08/29 13:03:35;;;;;;;2.80;2.60;;;;;;;;;;5053523;28;20086;-80
2023/08/29 13:06:00;;;;;;;2.85;2.55;;;;;;;;;;5068860;28;20051;-80
2023/08/29 13:08:25;;;;;;;3.15;2.85;;;;;;;;;;5058501;28;20092;-78
2023/08/29 13:10:51;;;;;;;2.65;2.45;;;;;;;;;;5066889;28;20099;-78
2023/08/29 13:13:16;;;;;;;3.38;3.08;;;;;;;;;;5074680;28;20102;-78
2023/08/29 13:15:42;;;;;;;3.63;3.33;;;;;;;;;;5074348;28;20039;-78
2023/08/29 13:18:07;;;;;;;4.53;3.97;;;;;;;;;;5067204;28;20101;-78
2023/08/29 13:20:33;;;;;;;4.40;3.55;;;;;;;;;;5066767;28;20025;-79
2023/08/29 13:23:00;;;;;;;3.92;3.53;;;;;;;;;;5065763;28;20344;-79
2023/08/29 13:25:26;;;;;;;4.85;3.70;;;;;;;;;;5048855;28;20024;-80
2023/08/29 13:27:51;;;;;;;3.67;3.35;;;;;;;;;;5055655;28;20020;-79
2023/08/29 13:30:17;;;;;;;3.70;2.58;;;;;;;;;;5074061;28;20112;-79
2023/08/29 13:32:42;;;;;;;1.83;1.73;;;;;;;;;;5077008;28;20024;-79
2023/08/29 13:35:08;;;;;;;2.25;1.50;;;;;;;;;;5076482;28;20111;-80
2023/08/29 13:37:33;;;;;;;1.88;1.67;;;;;;;;;;5076427;28;20084;-79
2023/08/29 13:39:59;;;;;;;1.30;1.27;;;;;;;;;;5075530;28;20032;-79
2023/08/29 13:42:24;;;;;;;1.40;1.30;;;;;;;;;;5049236;28;20522;-79
2023/08/29 13:45:00;;;;;;;5.20;1.35;;;;;;;;;;5057016;28;20042;-79
2023/08/29 13:47:25;;;;;;;1.73;1.48;;;;;;;;;;5074941;28;20028;-79
2023/08/29 13:49:52;;;;;;;1.42;1.33;;;;;;;;;;5058445;28;20025;-79
2023/08/29 13:52:18;;;;;;;3.92;1.52;;;;;;;;;;5066714;28;20023;-79
2023/08/29 13:54:43;;;;;;;1.67;1.38;;;;;;;;;;5048827;28;20028;-79
2023/08/29 13:57:09;;;;;;;1.70;1.60;;;;;;;;;;5075801;28;20031;-79
2023/08/29 13:59:34;;;;;;;2.08;1.52;;;;;;;;;;5075040;28;20026;-79
2023/08/29 14:01:59;;;;;;;1.92;1.77;;;;;;;;;;5074703;28;20544;-79
2023/08/29 14:04:25;;;;;;;2.80;1.92;;;;;;;;;;5072323;28;20037;-79
2023/08/29 14:06:51;;;;;;;1.80;1.67;;;;;;;;;;5052982;28;20028;-79
2023/08/29 14:09:16;;;;;;;2.08;1.77;;;;;;;;;;5066789;28;20075;-79
2023/08/29 14:11:41;;;;;;;1.60;1.50;;;;;;;;;;5070944;28;20081;-83
2023/08/29 14:14:07;;;;;;;1.60;1.50;;;;;;;;;;5048215;28;20038;-81
2023/08/29 14:16:32;;;;;;;2.20;2.00;;;;;;;;;;5055428;28;20050;-80
2023/08/29 14:18:57;;;;;;;4.10;2.15;;;;;;;;;;5056030;28;20788;-80
2023/08/29 14:21:23;;;;;;;1.83;1.45;;;;;;;;;;5072672;28;20027;-79
2023/08/29 14:23:49;;;;;;;4.00;2.17;;;;;;;;;;5071190;28;20529;-80
2023/08/29 14:26:14;;;;;;;1.50;1.40;;;;;;;;;;5072744;28;20021;-80
2023/08/29 14:28:39;;;;;;;6.65;1.70;;;;;;;;;;5073278;28;20094;-80
2023/08/29 14:31:05;;;;;;;1.95;1.77;;;;;;;;;;5066343;28;20029;-79
2023/08/29 14:33:31;;;;;;;1.60;1.50;;;;;;;;;;5074992;28;20040;-79
2023/08/29 14:35:57;;;;;;;1.60;1.50;;;;;;;;;;5067009;28;20421;-79
2023/08/29 14:38:22;;;;;;;1.60;1.50;;;;;;;;;;5054422;28;20020;-79
2023/08/29 14:40:48;;;;;;;2.97;1.67;;;;;;;;;;5068765;28;20024;-79
2023/08/29 14:43:13;;;;;;;1.52;1.45;;;;;;;;;;5062041;28;20060;-78
2023/08/29 14:45:42;;;;;;;1.58;1.48;;;;;;;;;;5083247;28;20039;-80